sensor_id;sensor_type;location;lat;lon;timestamp;temperature;humidity
34434;DHT22;34290;48.562;13.384;2023-07-29T00:01:37;17.90;99.90
34434;DHT22;34290;48.562;13.384;2023-07-29T00:04:05;18.00;99.90
34434;DHT22;34290;48.562;13.384;2023-07-29T00:06:33;18.10;99.90
34434;DHT22;34290;48.562;13.384;2023-07-29T00:09:00;18.00;99.90
34434;DHT22;34290;48.562;13.384;2023-07-29T00:11:28;18.00;99.90
34434;DHT22;34290;48.562;13.384;2023-07-29T00:13:55;17.90;99.90
34434;DHT22;34290;48.562;13.384;2023-07-29T00:18:50;17.80;99.90
34434;DHT22;34290;48.562;13.384;2023-07-29T00:21:17;17.80;99.90
34434;DHT22;34290;48.562;13.384;2023-07-29T00:23:44;17.70;99.90
34434;DHT22;34290;48.562;13.384;2023-07-29T00:26:11;17.60;99.90
34434;DHT22;34290;48.562;13.384;2023-07-29T00:28:40;17.60;99.90
34434;DHT22;34290;48.562;13.384;2023-07-29T00:31:06;17.60;99.90
34434;DHT22;34290;48.562;13.384;2023-07-29T00:36:01;17.50;99.90
34434;DHT22;34290;48.562;13.384;2023-07-29T00:38:28;17.40;99.90
34434;DHT22;34290;48.562;13.384;2023-07-29T00:40:57;17.30;99.90
34434;DHT22;34290;48.562;13.384;2023-07-29T00:43:24;17.20;99.90
34434;DHT22;34290;48.562;13.384;2023-07-29T00:45:53;17.20;99.90
34434;DHT22;34290;48.562;13.384;2023-07-29T00:48:20;17.20;99.90
34434;DHT22;34290;48.562;13.384;2023-07-29T00:50:47;17.20;99.90
34434;DHT22;34290;48.562;13.384;2023-07-29T00:53:15;17.10;99.90
34434;DHT22;34290;48.562;13.384;2023-07-29T00:55:42;17.50;99.90
34434;DHT22;34290;48.562;13.384;2023-07-29T00:58:10;17.20;99.90
34434;DHT22;34290;48.562;13.384;2023-07-29T01:00:37;17.30;99.90
34434;DHT22;34290;48.562;13.384;2023-07-29T01:03:05;17.10;99.90
34434;DHT22;34290;48.562;13.384;2023-07-29T01:05:36;17.10;99.90
34434;DHT22;34290;48.562;13.384;2023-07-29T01:08:11;17.10;99.90
34434;DHT22;34290;48.562;13.384;2023-07-29T01:10:48;17.00;99.90
34434;DHT22;34290;48.562;13.384;2023-07-29T01:13:25;17.10;99.90
34434;DHT22;34290;48.562;13.384;2023-07-29T01:15:58;17.10;99.90
34434;DHT22;34290;48.562;13.384;2023-07-29T01:18:29;17.00;99.90
34434;DHT22;34290;48.562;13.384;2023-07-29T01:20:59;17.30;99.90
34434;DHT22;34290;48.562;13.384;2023-07-29T01:23:30;17.10;99.90
34434;DHT22;34290;48.562;13.384;2023-07-29T01:25:57;17.70;99.90
34434;DHT22;34290;48.562;13.384;2023-07-29T01:28:25;17.10;99.90
34434;DHT22;34290;48.562;13.384;2023-07-29T01:30:57;17.10;99.90
34434;DHT22;34290;48.562;13.384;2023-07-29T01:33:26;17.10;99.90
34434;DHT22;34290;48.562;13.384;2023-07-29T01:35:57;17.10;99.90
34434;DHT22;34290;48.562;13.384;2023-07-29T01:38:30;17.10;99.90
34434;DHT22;34290;48.562;13.384;2023-07-29T01:41:01;17.10;99.90
34434;DHT22;34290;48.562;13.384;2023-07-29T01:48:23;17.10;99.90
34434;DHT22;34290;48.562;13.384;2023-07-29T01:50:50;17.20;99.90
34434;DHT22;34290;48.562;13.384;2023-07-29T01:53:17;17.20;99.90
34434;DHT22;34290;48.562;13.384;2023-07-29T01:55:45;17.20;99.90
34434;DHT22;34290;48.562;13.384;2023-07-29T01:58:12;17.20;99.90
34434;DHT22;34290;48.562;13.384;2023-07-29T02:00:39;17.20;99.90
34434;DHT22;34290;48.562;13.384;2023-07-29T02:03:06;17.30;99.90
34434;DHT22;34290;48.562;13.384;2023-07-29T02:05:33;17.20;99.90
34434;DHT22;34290;48.562;13.384;2023-07-29T02:08:00;17.10;99.90
34434;DHT22;34290;48.562;13.384;2023-07-29T02:10:27;17.50;99.90
34434;DHT22;34290;48.562;13.384;2023-07-29T02:12:55;17.30;99.90
34434;DHT22;34290;48.562;13.384;2023-07-29T02:15:23;17.20;99.90
34434;DHT22;34290;48.562;13.384;2023-07-29T02:17:50;17.20;99.90
34434;DHT22;34290;48.562;13.384;2023-07-29T02:20:17;17.20;99.90
34434;DHT22;34290;48.562;13.384;2023-07-29T02:25:11;17.10;99.90
34434;DHT22;34290;48.562;13.384;2023-07-29T02:27:38;17.00;99.90
34434;DHT22;34290;48.562;13.384;2023-07-29T02:30:08;17.00;99.90
34434;DHT22;34290;48.562;13.384;2023-07-29T02:32:36;16.90;99.90
34434;DHT22;34290;48.562;13.384;2023-07-29T02:35:03;17.00;99.90
34434;DHT22;34290;48.562;13.384;2023-07-29T02:37:31;16.60;99.90
34434;DHT22;34290;48.562;13.384;2023-07-29T02:39:58;16.90;99.90
34434;DHT22;34290;48.562;13.384;2023-07-29T02:44:52;16.90;99.90
34434;DHT22;34290;48.562;13.384;2023-07-29T02:47:20;16.80;99.90
34434;DHT22;34290;48.562;13.384;2023-07-29T02:49:47;17.20;99.90
34434;DHT22;34290;48.562;13.384;2023-07-29T02:52:14;16.90;99.90
34434;DHT22;34290;48.562;13.384;2023-07-29T02:57:08;17.00;99.90
34434;DHT22;34290;48.562;13.384;2023-07-29T03:02:02;16.90;99.90
34434;DHT22;34290;48.562;13.384;2023-07-29T03:04:31;17.20;99.90
34434;DHT22;34290;48.562;13.384;2023-07-29T03:06:58;16.70;99.90
34434;DHT22;34290;48.562;13.384;2023-07-29T03:09:25;16.40;99.90
34434;DHT22;34290;48.562;13.384;2023-07-29T03:11:52;16.90;99.90
34434;DHT22;34290;48.562;13.384;2023-07-29T03:14:20;16.60;99.90
34434;DHT22;34290;48.562;13.384;2023-07-29T03:16:47;16.70;99.90
34434;DHT22;34290;48.562;13.384;2023-07-29T03:19:15;16.60;99.90
34434;DHT22;34290;48.562;13.384;2023-07-29T03:21:43;16.60;99.90
34434;DHT22;34290;48.562;13.384;2023-07-29T03:24:11;16.60;99.90
34434;DHT22;34290;48.562;13.384;2023-07-29T03:26:38;16.70;99.90
34434;DHT22;34290;48.562;13.384;2023-07-29T03:29:05;16.50;99.90
34434;DHT22;34290;48.562;13.384;2023-07-29T03:33:59;16.60;99.90
34434;DHT22;34290;48.562;13.384;2023-07-29T03:36:26;16.80;99.90
34434;DHT22;34290;48.562;13.384;2023-07-29T03:38:54;16.90;99.90
34434;DHT22;34290;48.562;13.384;2023-07-29T03:41:22;16.80;99.90
34434;DHT22;34290;48.562;13.384;2023-07-29T03:43:49;16.70;99.90
34434;DHT22;34290;48.562;13.384;2023-07-29T03:46:16;16.40;99.90
34434;DHT22;34290;48.562;13.384;2023-07-29T03:48:45;16.60;99.90
34434;DHT22;34290;48.562;13.384;2023-07-29T03:51:12;16.90;99.90
34434;DHT22;34290;48.562;13.384;2023-07-29T03:53:39;16.70;99.90
34434;DHT22;34290;48.562;13.384;2023-07-29T03:56:07;16.60;99.90
34434;DHT22;34290;48.562;13.384;2023-07-29T03:58:34;16.60;99.90
34434;DHT22;34290;48.562;13.384;2023-07-29T04:01:01;16.80;99.90
34434;DHT22;34290;48.562;13.384;2023-07-29T04:03:30;16.50;99.90
34434;DHT22;34290;48.562;13.384;2023-07-29T04:05:57;16.70;99.90
34434;DHT22;34290;48.562;13.384;2023-07-29T04:08:24;16.80;99.90
34434;DHT22;34290;48.562;13.384;2023-07-29T04:10:51;16.90;99.90
34434;DHT22;34290;48.562;13.384;2023-07-29T04:13:19;16.80;99.90
34434;DHT22;34290;48.562;13.384;2023-07-29T04:15:46;16.80;99.90
34434;DHT22;34290;48.562;13.384;2023-07-29T04:18:13;16.70;99.90
34434;DHT22;34290;48.562;13.384;2023-07-29T04:20:40;16.80;99.90
34434;DHT22;34290;48.562;13.384;2023-07-29T04:23:07;16.70;99.90
34434;DHT22;34290;48.562;13.384;2023-07-29T04:25:34;16.30;99.90
34434;DHT22;34290;48.562;13.384;2023-07-29T04:28:04;16.70;99.90
34434;DHT22;34290;48.562;13.384;2023-07-29T04:30:32;16.70;99.90
34434;DHT22;34290;48.562;13.384;2023-07-29T04:32:59;16.60;99.90
34434;DHT22;34290;48.562;13.384;2023-07-29T04:35:26;16.90;99.90
34434;DHT22;34290;48.562;13.384;2023-07-29T04:37:53;16.90;99.90
34434;DHT22;34290;48.562;13.384;2023-07-29T04:42:49;17.00;99.90
34434;DHT22;34290;48.562;13.384;2023-07-29T04:45:16;17.00;99.90
34434;DHT22;34290;48.562;13.384;2023-07-29T04:47:44;17.30;99.90
34434;DHT22;34290;48.562;13.384;2023-07-29T04:50:11;17.30;99.90
34434;DHT22;34290;48.562;13.384;2023-07-29T04:55:06;17.90;99.90
34434;DHT22;34290;48.562;13.384;2023-07-29T04:57:33;18.10;99.90
34434;DHT22;34290;48.562;13.384;2023-07-29T05:00:00;18.50;99.90
34434;DHT22;34290;48.562;13.384;2023-07-29T05:02:27;19.20;99.90
34434;DHT22;34290;48.562;13.384;2023-07-29T05:04:55;20.40;99.90
34434;DHT22;34290;48.562;13.384;2023-07-29T05:07:22;21.40;99.90
34434;DHT22;34290;48.562;13.384;2023-07-29T05:09:49;21.70;99.90
34434;DHT22;34290;48.562;13.384;2023-07-29T05:12:16;22.50;99.90
34434;DHT22;34290;48.562;13.384;2023-07-29T05:14:43;23.30;99.90
34434;DHT22;34290;48.562;13.384;2023-07-29T05:17:10;24.00;99.90
34434;DHT22;34290;48.562;13.384;2023-07-29T05:22:05;25.30;99.90
34434;DHT22;34290;48.562;13.384;2023-07-29T05:24:32;26.10;99.90
34434;DHT22;34290;48.562;13.384;2023-07-29T05:26:59;26.40;99.90
34434;DHT22;34290;48.562;13.384;2023-07-29T05:29:26;26.40;99.90
34434;DHT22;34290;48.562;13.384;2023-07-29T05:34:20;28.00;99.90
34434;DHT22;34290;48.562;13.384;2023-07-29T05:39:16;29.00;99.90
34434;DHT22;34290;48.562;13.384;2023-07-29T05:41:43;29.00;99.30
34434;DHT22;34290;48.562;13.384;2023-07-29T05:44:09;29.70;98.60
34434;DHT22;34290;48.562;13.384;2023-07-29T05:46:36;29.90;98.00
34434;DHT22;34290;48.562;13.384;2023-07-29T05:51:30;30.00;97.60
34434;DHT22;34290;48.562;13.384;2023-07-29T05:56:26;30.70;96.60
34434;DHT22;34290;48.562;13.384;2023-07-29T05:58:53;31.30;95.90
34434;DHT22;34290;48.562;13.384;2023-07-29T06:01:20;31.50;95.60
34434;DHT22;34290;48.562;13.384;2023-07-29T06:08:48;34.00;92.70
34434;DHT22;34290;48.562;13.384;2023-07-29T06:11:16;34.50;92.00
34434;DHT22;34290;48.562;13.384;2023-07-29T06:13:47;32.80;91.60
34434;DHT22;34290;48.562;13.384;2023-07-29T06:18:41;27.60;96.70
34434;DHT22;34290;48.562;13.384;2023-07-29T06:23:38;31.10;95.80
34434;DHT22;34290;48.562;13.384;2023-07-29T06:26:05;33.10;93.80
34434;DHT22;34290;48.562;13.384;2023-07-29T06:28:32;32.30;92.80
34434;DHT22;34290;48.562;13.384;2023-07-29T06:31:01;32.10;93.00
34434;DHT22;34290;48.562;13.384;2023-07-29T06:33:28;31.20;94.60
34434;DHT22;34290;48.562;13.384;2023-07-29T06:35:55;32.30;94.70
34434;DHT22;34290;48.562;13.384;2023-07-29T06:38:22;34.60;92.70
34434;DHT22;34290;48.562;13.384;2023-07-29T06:40:49;33.70;92.20
34434;DHT22;34290;48.562;13.384;2023-07-29T06:43:16;32.50;92.60
34434;DHT22;34290;48.562;13.384;2023-07-29T06:48:11;29.80;94.50
34434;DHT22;34290;48.562;13.384;2023-07-29T06:50:38;30.70;95.00
34434;DHT22;34290;48.562;13.384;2023-07-29T06:53:06;29.80;94.60
34434;DHT22;34290;48.562;13.384;2023-07-29T06:55:33;27.90;96.50
34434;DHT22;34290;48.562;13.384;2023-07-29T06:58:00;26.50;98.20
34434;DHT22;34290;48.562;13.384;2023-07-29T07:02:54;26.30;99.90
34434;DHT22;34290;48.562;13.384;2023-07-29T07:05:23;27.80;99.50
34434;DHT22;34290;48.562;13.384;2023-07-29T07:10:19;31.20;95.60
34434;DHT22;34290;48.562;13.384;2023-07-29T07:12:46;32.40;93.50
34434;DHT22;34290;48.562;13.384;2023-07-29T07:15:13;33.00;93.40
34434;DHT22;34290;48.562;13.384;2023-07-29T07:17:40;31.70;93.70
34434;DHT22;34290;48.562;13.384;2023-07-29T07:20:07;30.80;94.50
34434;DHT22;34290;48.562;13.384;2023-07-29T07:22:36;28.70;96.00
34434;DHT22;34290;48.562;13.384;2023-07-29T07:25:03;28.20;97.40
34434;DHT22;34290;48.562;13.384;2023-07-29T07:27:30;27.80;97.80
34434;DHT22;34290;48.562;13.384;2023-07-29T07:29:57;27.90;97.80
34434;DHT22;34290;48.562;13.384;2023-07-29T07:32:24;27.80;97.40
34434;DHT22;34290;48.562;13.384;2023-07-29T07:34:51;28.60;96.80
34434;DHT22;34290;48.562;13.384;2023-07-29T07:37:18;29.40;96.30
34434;DHT22;34290;48.562;13.384;2023-07-29T07:39:46;31.70;94.60
34434;DHT22;34290;48.562;13.384;2023-07-29T07:42:13;32.80;93.30
34434;DHT22;34290;48.562;13.384;2023-07-29T07:47:08;32.20;92.30
34434;DHT22;34290;48.562;13.384;2023-07-29T07:52:02;31.50;93.80
34434;DHT22;34290;48.562;13.384;2023-07-29T07:56:57;33.60;92.40
34434;DHT22;34290;48.562;13.384;2023-07-29T07:59:24;33.60;92.30
34434;DHT22;34290;48.562;13.384;2023-07-29T08:01:51;33.60;91.50
34434;DHT22;34290;48.562;13.384;2023-07-29T08:04:18;33.40;91.10
34434;DHT22;34290;48.562;13.384;2023-07-29T08:06:45;32.20;91.60
34434;DHT22;34290;48.562;13.384;2023-07-29T08:09:12;30.60;91.90
34434;DHT22;34290;48.562;13.384;2023-07-29T08:11:40;29.10;93.40
34434;DHT22;34290;48.562;13.384;2023-07-29T08:14:08;28.10;94.50
34434;DHT22;34290;48.562;13.384;2023-07-29T08:19:03;27.90;96.10
34434;DHT22;34290;48.562;13.384;2023-07-29T08:23:57;31.10;93.80
34434;DHT22;34290;48.562;13.384;2023-07-29T08:28:51;31.30;91.90
34434;DHT22;34290;48.562;13.384;2023-07-29T08:31:19;32.10;91.90
34434;DHT22;34290;48.562;13.384;2023-07-29T08:33:46;32.00;91.40
34434;DHT22;34290;48.562;13.384;2023-07-29T08:36:13;31.00;92.40
34434;DHT22;34290;48.562;13.384;2023-07-29T08:41:13;30.70;92.80
34434;DHT22;34290;48.562;13.384;2023-07-29T08:43:44;30.60;92.80
34434;DHT22;34290;48.562;13.384;2023-07-29T08:46:15;30.10;92.80
34434;DHT22;34290;48.562;13.384;2023-07-29T08:48:44;28.90;94.10
34434;DHT22;34290;48.562;13.384;2023-07-29T08:51:12;28.00;94.90
34434;DHT22;34290;48.562;13.384;2023-07-29T08:53:39;27.00;96.00
34434;DHT22;34290;48.562;13.384;2023-07-29T08:56:07;26.30;97.10
34434;DHT22;34290;48.562;13.384;2023-07-29T08:58:35;25.70;98.60
34434;DHT22;34290;48.562;13.384;2023-07-29T09:01:02;24.90;99.90
34434;DHT22;34290;48.562;13.384;2023-07-29T09:05:57;23.10;99.90
34434;DHT22;34290;48.562;13.384;2023-07-29T09:08:25;22.50;99.90
34434;DHT22;34290;48.562;13.384;2023-07-29T09:10:53;22.00;99.90
34434;DHT22;34290;48.562;13.384;2023-07-29T09:13:20;21.90;99.90
34434;DHT22;34290;48.562;13.384;2023-07-29T09:15:47;21.70;99.90
34434;DHT22;34290;48.562;13.384;2023-07-29T09:18:16;21.40;99.90
34434;DHT22;34290;48.562;13.384;2023-07-29T09:23:11;21.30;99.90
34434;DHT22;34290;48.562;13.384;2023-07-29T09:25:39;20.90;99.90
34434;DHT22;34290;48.562;13.384;2023-07-29T09:28:10;20.90;99.90
34434;DHT22;34290;48.562;13.384;2023-07-29T09:30:38;20.90;99.90
34434;DHT22;34290;48.562;13.384;2023-07-29T09:33:05;20.90;99.90
34434;DHT22;34290;48.562;13.384;2023-07-29T09:35:33;20.80;99.90
34434;DHT22;34290;48.562;13.384;2023-07-29T09:38:01;20.20;99.90
34434;DHT22;34290;48.562;13.384;2023-07-29T09:40:34;20.70;99.90
34434;DHT22;34290;48.562;13.384;2023-07-29T09:43:02;20.60;99.90
34434;DHT22;34290;48.562;13.384;2023-07-29T09:45:29;20.60;99.90
34434;DHT22;34290;48.562;13.384;2023-07-29T09:47:57;20.60;99.90
34434;DHT22;34290;48.562;13.384;2023-07-29T09:50:25;20.80;99.90
34434;DHT22;34290;48.562;13.384;2023-07-29T09:52:52;20.90;99.90
34434;DHT22;34290;48.562;13.384;2023-07-29T09:55:21;21.20;99.90
34434;DHT22;34290;48.562;13.384;2023-07-29T09:57:56;21.30;99.90
34434;DHT22;34290;48.562;13.384;2023-07-29T10:00:23;20.90;99.90
34434;DHT22;34290;48.562;13.384;2023-07-29T10:02:51;21.40;99.90
34434;DHT22;34290;48.562;13.384;2023-07-29T10:07:46;21.70;99.90
34434;DHT22;34290;48.562;13.384;2023-07-29T10:12:41;21.30;99.90
34434;DHT22;34290;48.562;13.384;2023-07-29T10:15:10;21.10;99.90
34434;DHT22;34290;48.562;13.384;2023-07-29T10:17:38;21.30;99.90
34434;DHT22;34290;48.562;13.384;2023-07-29T10:20:07;21.10;99.90
34434;DHT22;34290;48.562;13.384;2023-07-29T10:22:36;20.80;99.90
34434;DHT22;34290;48.562;13.384;2023-07-29T10:27:39;21.40;99.90
34434;DHT22;34290;48.562;13.384;2023-07-29T10:30:11;21.70;99.90
34434;DHT22;34290;48.562;13.384;2023-07-29T10:32:42;22.00;99.90
34434;DHT22;34290;48.562;13.384;2023-07-29T10:35:09;22.30;99.90
34434;DHT22;34290;48.562;13.384;2023-07-29T10:37:37;22.60;99.90
34434;DHT22;34290;48.562;13.384;2023-07-29T10:40:07;23.20;99.90
34434;DHT22;34290;48.562;13.384;2023-07-29T10:42:34;23.30;99.90
34434;DHT22;34290;48.562;13.384;2023-07-29T10:45:18;23.80;99.90
34434;DHT22;34290;48.562;13.384;2023-07-29T10:47:45;24.20;99.90
34434;DHT22;34290;48.562;13.384;2023-07-29T10:50:18;24.90;99.90
34434;DHT22;34290;48.562;13.384;2023-07-29T10:52:49;24.50;99.90
34434;DHT22;34290;48.562;13.384;2023-07-29T10:55:34;24.70;99.90
34434;DHT22;34290;48.562;13.384;2023-07-29T10:58:07;25.00;99.90
34434;DHT22;34290;48.562;13.384;2023-07-29T11:00:36;25.00;99.90
34434;DHT22;34290;48.562;13.384;2023-07-29T11:03:05;25.40;99.90
34434;DHT22;34290;48.562;13.384;2023-07-29T11:05:43;25.10;99.90
34434;DHT22;34290;48.562;13.384;2023-07-29T11:10:58;24.90;99.90
34434;DHT22;34290;48.562;13.384;2023-07-29T11:13:26;24.10;99.90
34434;DHT22;34290;48.562;13.384;2023-07-29T11:15:56;24.50;99.90
34434;DHT22;34290;48.562;13.384;2023-07-29T11:18:27;24.30;99.90
34434;DHT22;34290;48.562;13.384;2023-07-29T11:20:55;24.40;99.90
34434;DHT22;34290;48.562;13.384;2023-07-29T11:23:28;23.80;99.90
34434;DHT22;34290;48.562;13.384;2023-07-29T11:25:56;23.70;99.90
34434;DHT22;34290;48.562;13.384;2023-07-29T11:33:20;23.80;99.90
34434;DHT22;34290;48.562;13.384;2023-07-29T11:35:47;24.00;99.90
34434;DHT22;34290;48.562;13.384;2023-07-29T11:38:15;24.30;99.90
34434;DHT22;34290;48.562;13.384;2023-07-29T11:40:43;24.60;99.90
34434;DHT22;34290;48.562;13.384;2023-07-29T11:43:17;24.40;99.90
34434;DHT22;34290;48.562;13.384;2023-07-29T11:45:45;24.40;99.90
34434;DHT22;34290;48.562;13.384;2023-07-29T11:48:12;24.10;99.90
34434;DHT22;34290;48.562;13.384;2023-07-29T11:53:07;24.30;99.90
34434;DHT22;34290;48.562;13.384;2023-07-29T11:58:02;24.20;99.90
34434;DHT22;34290;48.562;13.384;2023-07-29T12:00:29;25.00;99.90
34434;DHT22;34290;48.562;13.384;2023-07-29T12:02:56;25.30;99.90
34434;DHT22;34290;48.562;13.384;2023-07-29T12:05:24;24.90;99.90
34434;DHT22;34290;48.562;13.384;2023-07-29T12:07:53;25.40;99.90
34434;DHT22;34290;48.562;13.384;2023-07-29T12:10:20;25.70;99.90
34434;DHT22;34290;48.562;13.384;2023-07-29T12:15:23;25.40;99.90
34434;DHT22;34290;48.562;13.384;2023-07-29T12:17:53;25.20;99.90
34434;DHT22;34290;48.562;13.384;2023-07-29T12:20:22;25.10;99.90
34434;DHT22;34290;48.562;13.384;2023-07-29T12:22:54;24.60;99.90
34434;DHT22;34290;48.562;13.384;2023-07-29T12:25:21;24.60;99.90
34434;DHT22;34290;48.562;13.384;2023-07-29T12:27:48;23.40;99.90
34434;DHT22;34290;48.562;13.384;2023-07-29T12:32:44;24.00;99.90
34434;DHT22;34290;48.562;13.384;2023-07-29T12:35:11;23.30;99.90
34434;DHT22;34290;48.562;13.384;2023-07-29T12:37:38;24.10;99.90
34434;DHT22;34290;48.562;13.384;2023-07-29T12:40:21;23.80;99.90
34434;DHT22;34290;48.562;13.384;2023-07-29T12:42:49;23.80;99.90
34434;DHT22;34290;48.562;13.384;2023-07-29T12:45:17;23.60;99.90
34434;DHT22;34290;48.562;13.384;2023-07-29T12:50:11;23.10;99.90
34434;DHT22;34290;48.562;13.384;2023-07-29T12:52:38;23.20;99.90
34434;DHT22;34290;48.562;13.384;2023-07-29T12:55:06;22.70;99.90
34434;DHT22;34290;48.562;13.384;2023-07-29T12:57:41;22.20;99.90
34434;DHT22;34290;48.562;13.384;2023-07-29T13:00:09;21.90;99.90
34434;DHT22;34290;48.562;13.384;2023-07-29T13:02:36;21.90;99.90
34434;DHT22;34290;48.562;13.384;2023-07-29T13:05:03;21.50;99.90
34434;DHT22;34290;48.562;13.384;2023-07-29T13:09:58;21.60;99.90
34434;DHT22;34290;48.562;13.384;2023-07-29T13:14:53;21.90;99.90
34434;DHT22;34290;48.562;13.384;2023-07-29T13:17:21;21.90;99.90
34434;DHT22;34290;48.562;13.384;2023-07-29T13:19:48;22.50;99.90
34434;DHT22;34290;48.562;13.384;2023-07-29T13:24:43;22.70;99.90
34434;DHT22;34290;48.562;13.384;2023-07-29T13:27:10;22.70;99.90
34434;DHT22;34290;48.562;13.384;2023-07-29T13:32:07;22.60;99.90
34434;DHT22;34290;48.562;13.384;2023-07-29T13:34:34;23.10;99.90
34434;DHT22;34290;48.562;13.384;2023-07-29T13:37:01;22.90;99.90
34434;DHT22;34290;48.562;13.384;2023-07-29T13:39:28;22.60;99.90
34434;DHT22;34290;48.562;13.384;2023-07-29T13:49:18;23.50;99.90
34434;DHT22;34290;48.562;13.384;2023-07-29T13:51:45;23.60;99.90
34434;DHT22;34290;48.562;13.384;2023-07-29T13:54:12;23.90;99.90
34434;DHT22;34290;48.562;13.384;2023-07-29T13:56:39;23.90;99.90
34434;DHT22;34290;48.562;13.384;2023-07-29T13:59:06;24.00;99.90
34434;DHT22;34290;48.562;13.384;2023-07-29T14:01:33;23.80;99.90
34434;DHT22;34290;48.562;13.384;2023-07-29T14:06:29;23.70;99.90
34434;DHT22;34290;48.562;13.384;2023-07-29T14:08:56;23.70;99.90
34434;DHT22;34290;48.562;13.384;2023-07-29T14:11:23;24.10;99.90
34434;DHT22;34290;48.562;13.384;2023-07-29T14:13:51;24.00;99.90
34434;DHT22;34290;48.562;13.384;2023-07-29T14:16:18;24.10;99.90
34434;DHT22;34290;48.562;13.384;2023-07-29T14:18:45;24.20;99.90
34434;DHT22;34290;48.562;13.384;2023-07-29T14:21:11;24.30;99.90
34434;DHT22;34290;48.562;13.384;2023-07-29T14:23:40;24.20;99.90
34434;DHT22;34290;48.562;13.384;2023-07-29T14:26:07;24.20;99.90
34434;DHT22;34290;48.562;13.384;2023-07-29T14:28:35;24.30;99.90
34434;DHT22;34290;48.562;13.384;2023-07-29T14:31:02;24.30;99.90
34434;DHT22;34290;48.562;13.384;2023-07-29T14:35:56;24.60;99.90
34434;DHT22;34290;48.562;13.384;2023-07-29T14:40:53;24.70;99.90
34434;DHT22;34290;48.562;13.384;2023-07-29T14:43:22;24.60;99.90
34434;DHT22;34290;48.562;13.384;2023-07-29T14:45:49;24.60;99.90
34434;DHT22;34290;48.562;13.384;2023-07-29T14:48:16;24.40;99.90
34434;DHT22;34290;48.562;13.384;2023-07-29T14:50:43;24.30;99.90
34434;DHT22;34290;48.562;13.384;2023-07-29T14:53:10;24.30;99.90
34434;DHT22;34290;48.562;13.384;2023-07-29T14:55:37;24.40;99.90
34434;DHT22;34290;48.562;13.384;2023-07-29T14:58:05;24.40;99.90
34434;DHT22;34290;48.562;13.384;2023-07-29T15:00:32;24.50;99.90
34434;DHT22;34290;48.562;13.384;2023-07-29T15:05:27;24.50;99.90
34434;DHT22;34290;48.562;13.384;2023-07-29T15:07:54;24.60;99.90
34434;DHT22;34290;48.562;13.384;2023-07-29T15:10:21;24.50;99.90
34434;DHT22;34290;48.562;13.384;2023-07-29T15:12:48;24.50;99.90
34434;DHT22;34290;48.562;13.384;2023-07-29T15:15:16;24.60;99.90
34434;DHT22;34290;48.562;13.384;2023-07-29T15:17:43;24.70;99.90
34434;DHT22;34290;48.562;13.384;2023-07-29T15:20:11;24.70;99.90
34434;DHT22;34290;48.562;13.384;2023-07-29T15:22:38;24.80;99.90
34434;DHT22;34290;48.562;13.384;2023-07-29T15:25:05;24.90;99.90
34434;DHT22;34290;48.562;13.384;2023-07-29T15:27:32;24.90;99.90
34434;DHT22;34290;48.562;13.384;2023-07-29T15:30:00;25.00;99.90
34434;DHT22;34290;48.562;13.384;2023-07-29T15:32:28;24.90;99.90
34434;DHT22;34290;48.562;13.384;2023-07-29T15:34:55;24.70;99.90
34434;DHT22;34290;48.562;13.384;2023-07-29T15:37:22;24.70;99.90
34434;DHT22;34290;48.562;13.384;2023-07-29T15:42:19;24.50;99.90
34434;DHT22;34290;48.562;13.384;2023-07-29T15:44:46;24.40;99.90
34434;DHT22;34290;48.562;13.384;2023-07-29T15:47:13;24.30;99.90
34434;DHT22;34290;48.562;13.384;2023-07-29T15:49:43;24.30;99.90
34434;DHT22;34290;48.562;13.384;2023-07-29T15:52:10;24.30;99.90
34434;DHT22;34290;48.562;13.384;2023-07-29T15:54:40;24.30;99.90
34434;DHT22;34290;48.562;13.384;2023-07-29T15:57:07;24.20;99.90
34434;DHT22;34290;48.562;13.384;2023-07-29T15:59:34;24.20;99.90
34434;DHT22;34290;48.562;13.384;2023-07-29T16:02:01;23.90;99.90
34434;DHT22;34290;48.562;13.384;2023-07-29T16:04:28;23.80;99.90
34434;DHT22;34290;48.562;13.384;2023-07-29T16:06:56;23.70;99.90
34434;DHT22;34290;48.562;13.384;2023-07-29T16:09:23;23.60;99.90
34434;DHT22;34290;48.562;13.384;2023-07-29T16:11:50;23.50;99.90
34434;DHT22;34290;48.562;13.384;2023-07-29T16:14:17;23.20;99.90
34434;DHT22;34290;48.562;13.384;2023-07-29T16:16:45;23.20;99.90
34434;DHT22;34290;48.562;13.384;2023-07-29T16:19:22;23.10;99.90
34434;DHT22;34290;48.562;13.384;2023-07-29T16:21:49;23.00;99.90
34434;DHT22;34290;48.562;13.384;2023-07-29T16:24:20;22.70;99.90
34434;DHT22;34290;48.562;13.384;2023-07-29T16:29:14;22.70;99.90
34434;DHT22;34290;48.562;13.384;2023-07-29T16:31:41;22.60;99.90
34434;DHT22;34290;48.562;13.384;2023-07-29T16:34:08;22.40;99.90
34434;DHT22;34290;48.562;13.384;2023-07-29T16:36:35;22.30;99.90
34434;DHT22;34290;48.562;13.384;2023-07-29T16:39:02;22.30;99.90
34434;DHT22;34290;48.562;13.384;2023-07-29T16:41:31;22.20;99.90
34434;DHT22;34290;48.562;13.384;2023-07-29T16:46:25;21.80;99.90
34434;DHT22;34290;48.562;13.384;2023-07-29T16:48:52;21.80;99.90
34434;DHT22;34290;48.562;13.384;2023-07-29T16:53:46;21.80;99.90
34434;DHT22;34290;48.562;13.384;2023-07-29T16:56:13;21.80;99.90
34434;DHT22;34290;48.562;13.384;2023-07-29T16:58:42;21.80;99.90
34434;DHT22;34290;48.562;13.384;2023-07-29T17:01:08;21.70;99.90
34434;DHT22;34290;48.562;13.384;2023-07-29T17:03:35;21.60;99.90
34434;DHT22;34290;48.562;13.384;2023-07-29T17:06:02;21.50;99.90
34434;DHT22;34290;48.562;13.384;2023-07-29T17:08:29;21.50;99.90
34434;DHT22;34290;48.562;13.384;2023-07-29T17:10:56;21.50;99.90
34434;DHT22;34290;48.562;13.384;2023-07-29T17:13:23;21.40;99.90
34434;DHT22;34290;48.562;13.384;2023-07-29T17:15:52;21.40;99.90
34434;DHT22;34290;48.562;13.384;2023-07-29T17:18:19;21.20;99.90
34434;DHT22;34290;48.562;13.384;2023-07-29T17:20:46;21.20;99.90
34434;DHT22;34290;48.562;13.384;2023-07-29T17:23:13;21.20;99.90
34434;DHT22;34290;48.562;13.384;2023-07-29T17:25:40;21.10;99.90
34434;DHT22;34290;48.562;13.384;2023-07-29T17:28:07;21.00;99.90
34434;DHT22;34290;48.562;13.384;2023-07-29T17:30:34;20.90;99.90
34434;DHT22;34290;48.562;13.384;2023-07-29T17:33:03;20.80;99.90
34434;DHT22;34290;48.562;13.384;2023-07-29T17:35:30;20.70;99.90
34434;DHT22;34290;48.562;13.384;2023-07-29T17:37:57;20.70;99.90
34434;DHT22;34290;48.562;13.384;2023-07-29T17:40:24;20.60;99.90
34434;DHT22;34290;48.562;13.384;2023-07-29T17:42:51;20.70;99.90